sensor_id;sensor_type;location;lat;lon;timestamp;pressure;altitude;pressure_sealevel;temperature;humidity
63500;BME280;49654;51.142;14.924;2023-04-09T00:01:34;100108.13;;;3.90;77.03
63500;BME280;49654;51.142;14.924;2023-04-09T00:04:01;100122.81;;;4.12;77.01
63500;BME280;49654;51.142;14.924;2023-04-09T00:06:28;100120.53;;;4.20;76.65
63500;BME280;49654;51.142;14.924;2023-04-09T00:08:57;100125.22;;;4.26;76.29
63500;BME280;49654;51.142;14.924;2023-04-09T00:11:24;100096.03;;;4.03;75.92
63500;BME280;49654;51.142;14.924;2023-04-09T00:13:51;100010.44;;;3.42;76.36
63500;BME280;49654;51.142;14.924;2023-04-09T00:16:18;100089.25;;;3.78;75.89
63500;BME280;49654;51.142;14.924;2023-04-09T00:18:45;100128.66;;;3.90;77.00
63500;BME280;49654;51.142;14.924;2023-04-09T00:21:12;100103.13;;;3.99;75.83
63500;BME280;49654;51.142;14.924;2023-04-09T00:23:41;100117.91;;;4.09;75.88
63500;BME280;49654;51.142;14.924;2023-04-09T00:26:09;100114.28;;;4.11;75.50
63500;BME280;49654;51.142;14.924;2023-04-09T00:28:36;100003.31;;;3.34;75.51
63500;BME280;49654;51.142;14.924;2023-04-09T00:31:03;99974.28;;;3.08;75.69
63500;BME280;49654;51.142;14.924;2023-04-09T00:33:30;100102.69;;;3.82;77.12
63500;BME280;49654;51.142;14.924;2023-04-09T00:35:57;100121.50;;;4.06;77.22
63500;BME280;49654;51.142;14.924;2023-04-09T00:38:24;100127.41;;;3.95;76.69
63500;BME280;49654;51.142;14.924;2023-04-09T00:40:51;100014.66;;;3.06;77.24
63500;BME280;49654;51.142;14.924;2023-04-09T00:43:20;100092.69;;;3.53;78.08
63500;BME280;49654;51.142;14.924;2023-04-09T00:45:47;100126.34;;;3.98;78.23
63500;BME280;49654;51.142;14.924;2023-04-09T00:48:14;100110.94;;;3.98;77.91
63500;BME280;49654;51.142;14.924;2023-04-09T00:50:41;100107.00;;;4.05;77.31
63500;BME280;49654;51.142;14.924;2023-04-09T00:53:09;100075.06;;;3.72;77.04
63500;BME280;49654;51.142;14.924;2023-04-09T00:55:39;100050.66;;;3.54;77.11
63500;BME280;49654;51.142;14.924;2023-04-09T00:58:07;100105.03;;;3.85;76.97
63500;BME280;49654;51.142;14.924;2023-04-09T01:00:35;100037.56;;;3.33;76.79
63500;BME280;49654;51.142;14.924;2023-04-09T01:03:04;99978.03;;;3.04;76.91
63500;BME280;49654;51.142;14.924;2023-04-09T01:05:37;100130.78;;;3.96;77.65
63500;BME280;49654;51.142;14.924;2023-04-09T01:08:22;100107.59;;;3.85;77.26
63500;BME280;49654;51.142;14.924;2023-04-09T01:10:58;100058.09;;;3.46;76.76
63500;BME280;49654;51.142;14.924;2023-04-09T01:13:38;100090.59;;;3.71;76.21
63500;BME280;49654;51.142;14.924;2023-04-09T01:16:11;100130.06;;;3.94;75.75
63500;BME280;49654;51.142;14.924;2023-04-09T01:18:43;100123.34;;;3.80;76.63
63500;BME280;49654;51.142;14.924;2023-04-09T01:21:16;100059.44;;;3.51;75.55
63500;BME280;49654;51.142;14.924;2023-04-09T01:23:48;100117.59;;;3.76;76.28
63500;BME280;49654;51.142;14.924;2023-04-09T01:26:40;100136.34;;;3.66;76.33
63500;BME280;49654;51.142;14.924;2023-04-09T01:29:14;100139.63;;;3.55;78.01
63500;BME280;49654;51.142;14.924;2023-04-09T01:31:43;100132.81;;;3.67;78.60
63500;BME280;49654;51.142;14.924;2023-04-09T01:34:11;100028.91;;;3.10;78.27
63500;BME280;49654;51.142;14.924;2023-04-09T01:36:41;100086.84;;;3.51;78.13
63500;BME280;49654;51.142;14.924;2023-04-09T01:39:08;100118.84;;;3.71;77.23
63500;BME280;49654;51.142;14.924;2023-04-09T01:41:36;100127.91;;;3.64;77.54
63500;BME280;49654;51.142;14.924;2023-04-09T01:44:06;100128.09;;;3.73;78.38
63500;BME280;49654;51.142;14.924;2023-04-09T01:46:38;100063.66;;;3.40;78.69
63500;BME280;49654;51.142;14.924;2023-04-09T01:49:05;100117.13;;;3.95;77.75
63500;BME280;49654;51.142;14.924;2023-04-09T01:51:33;100145.91;;;4.24;77.30
63500;BME280;49654;51.142;14.924;2023-04-09T01:54:00;100145.16;;;4.11;76.94
63500;BME280;49654;51.142;14.924;2023-04-09T01:56:27;100030.16;;;3.41;77.43
63500;BME280;49654;51.142;14.924;2023-04-09T01:58:54;100152.53;;;4.16;77.58
63500;BME280;49654;51.142;14.924;2023-04-09T02:01:23;100140.91;;;4.10;77.51
63500;BME280;49654;51.142;14.924;2023-04-09T02:03:54;100121.66;;;3.92;78.12
63500;BME280;49654;51.142;14.924;2023-04-09T02:06:26;100135.16;;;4.07;77.77
63500;BME280;49654;51.142;14.924;2023-04-09T02:08:59;100143.75;;;4.18;77.82
63500;BME280;49654;51.142;14.924;2023-04-09T02:11:28;100101.25;;;4.01;77.53
63500;BME280;49654;51.142;14.924;2023-04-09T02:13:55;100046.16;;;3.82;77.20
63500;BME280;49654;51.142;14.924;2023-04-09T02:16:24;100040.13;;;3.94;76.26
63500;BME280;49654;51.142;14.924;2023-04-09T02:18:53;100061.47;;;4.07;75.82
63500;BME280;49654;51.142;14.924;2023-04-09T02:21:21;100142.34;;;4.38;76.29
63500;BME280;49654;51.142;14.924;2023-04-09T02:23:48;100081.19;;;3.83;77.07
63500;BME280;49654;51.142;14.924;2023-04-09T02:26:15;100134.75;;;4.13;77.21
63500;BME280;49654;51.142;14.924;2023-04-09T02:28:42;100146.81;;;4.23;77.79
63500;BME280;49654;51.142;14.924;2023-04-09T02:31:09;100127.47;;;4.31;77.40
63500;BME280;49654;51.142;14.924;2023-04-09T02:33:37;100138.81;;;4.39;77.14
63500;BME280;49654;51.142;14.924;2023-04-09T02:36:05;100140.13;;;4.45;76.64
63500;BME280;49654;51.142;14.924;2023-04-09T02:38:32;100137.22;;;4.49;76.05
63500;BME280;49654;51.142;14.924;2023-04-09T02:40:59;100127.50;;;4.42;76.34
63500;BME280;49654;51.142;14.924;2023-04-09T02:43:26;100109.41;;;4.19;76.47
63500;BME280;49654;51.142;14.924;2023-04-09T02:45:53;100138.19;;;4.24;76.47
63500;BME280;49654;51.142;14.924;2023-04-09T02:48:20;100085.56;;;3.69;76.65
63500;BME280;49654;51.142;14.924;2023-04-09T02:50:47;100054.53;;;3.36;78.35
63500;BME280;49654;51.142;14.924;2023-04-09T02:53:15;100130.41;;;3.89;78.56
63500;BME280;49654;51.142;14.924;2023-04-09T02:55:42;99987.59;;;2.76;77.48
63500;BME280;49654;51.142;14.924;2023-04-09T02:58:09;100131.91;;;3.55;78.04
63500;BME280;49654;51.142;14.924;2023-04-09T03:00:36;100098.56;;;3.42;78.90
63500;BME280;49654;51.142;14.924;2023-04-09T03:03:03;100123.00;;;3.48;78.31
63500;BME280;49654;51.142;14.924;2023-04-09T03:05:30;100092.88;;;3.26;78.70
63500;BME280;49654;51.142;14.924;2023-04-09T03:07:57;100127.09;;;3.50;79.25
63500;BME280;49654;51.142;14.924;2023-04-09T03:10:25;100114.44;;;3.73;78.82
63500;BME280;49654;51.142;14.924;2023-04-09T03:12:52;99974.06;;;2.87;77.47
63500;BME280;49654;51.142;14.924;2023-04-09T03:15:19;100058.97;;;3.21;77.16
63500;BME280;49654;51.142;14.924;2023-04-09T03:17:46;100102.47;;;3.48;77.06
63500;BME280;49654;51.142;14.924;2023-04-09T03:20:13;99984.41;;;2.73;76.98
63500;BME280;49654;51.142;14.924;2023-04-09T03:22:40;100038.56;;;3.07;77.04
63500;BME280;49654;51.142;14.924;2023-04-09T03:25:07;100127.31;;;3.60;76.52
63500;BME280;49654;51.142;14.924;2023-04-09T03:27:36;100118.28;;;3.42;77.17
63500;BME280;49654;51.142;14.924;2023-04-09T03:30:03;100095.00;;;3.32;77.17
63500;BME280;49654;51.142;14.924;2023-04-09T03:32:30;100024.31;;;2.77;77.15
63500;BME280;49654;51.142;14.924;2023-04-09T03:34:57;100074.31;;;2.84;77.87
63500;BME280;49654;51.142;14.924;2023-04-09T03:37:24;100021.44;;;2.56;78.89
63500;BME280;49654;51.142;14.924;2023-04-09T03:39:51;100116.78;;;3.14;79.22
63500;BME280;49654;51.142;14.924;2023-04-09T03:42:18;100042.28;;;2.64;79.30
63500;BME280;49654;51.142;14.924;2023-04-09T03:44:46;100047.72;;;2.72;79.80
63500;BME280;49654;51.142;14.924;2023-04-09T03:47:13;100114.41;;;3.23;79.65
63500;BME280;49654;51.142;14.924;2023-04-09T03:49:40;100095.53;;;3.12;78.81
63500;BME280;49654;51.142;14.924;2023-04-09T03:52:07;100039.00;;;2.88;78.98
63500;BME280;49654;51.142;14.924;2023-04-09T03:54:34;100089.06;;;3.06;77.53
63500;BME280;49654;51.142;14.924;2023-04-09T03:57:01;100090.00;;;3.05;77.45
63500;BME280;49654;51.142;14.924;2023-04-09T03:59:29;100093.38;;;3.06;76.98
63500;BME280;49654;51.142;14.924;2023-04-09T04:01:57;100096.88;;;2.92;76.86
63500;BME280;49654;51.142;14.924;2023-04-09T04:04:24;100136.19;;;3.05;77.21
63500;BME280;49654;51.142;14.924;2023-04-09T04:06:51;100140.50;;;3.05;77.65
63500;BME280;49654;51.142;14.924;2023-04-09T04:09:18;100099.13;;;2.84;77.33
63500;BME280;49654;51.142;14.924;2023-04-09T04:11:45;100061.16;;;2.50;77.82
63500;BME280;49654;51.142;14.924;2023-04-09T04:14:12;100110.41;;;2.68;78.22
63500;BME280;49654;51.142;14.924;2023-04-09T04:16:39;100131.84;;;2.67;78.34
63500;BME280;49654;51.142;14.924;2023-04-09T04:19:07;100053.59;;;2.22;78.14
63500;BME280;49654;51.142;14.924;2023-04-09T04:21:34;100098.50;;;2.55;76.88
63500;BME280;49654;51.142;14.924;2023-04-09T04:24:01;100134.53;;;2.66;77.22
63500;BME280;49654;51.142;14.924;2023-04-09T04:26:28;100072.16;;;2.13;77.56
63500;BME280;49654;51.142;14.924;2023-04-09T04:28:55;100069.69;;;2.11;77.43
63500;BME280;49654;51.142;14.924;2023-04-09T04:31:22;100119.50;;;2.47;77.24
63500;BME280;49654;51.142;14.924;2023-04-09T04:33:49;100143.34;;;2.62;77.02
63500;BME280;49654;51.142;14.924;2023-04-09T04:36:17;100140.03;;;2.60;77.45
63500;BME280;49654;51.142;14.924;2023-04-09T04:38:44;100139.81;;;2.50;77.95
63500;BME280;49654;51.142;14.924;2023-04-09T04:41:11;100100.97;;;2.16;78.23
63500;BME280;49654;51.142;14.924;2023-04-09T04:43:38;100110.81;;;2.22;78.56
63500;BME280;49654;51.142;14.924;2023-04-09T04:46:06;100028.88;;;1.68;79.32
63500;BME280;49654;51.142;14.924;2023-04-09T04:48:32;100133.34;;;2.44;79.50
63500;BME280;49654;51.142;14.924;2023-04-09T04:51:00;100034.75;;;1.83;79.32
63500;BME280;49654;51.142;14.924;2023-04-09T04:53:29;100099.28;;;2.42;79.45
63500;BME280;49654;51.142;14.924;2023-04-09T04:55:56;100082.56;;;2.37;78.46
63500;BME280;49654;51.142;14.924;2023-04-09T04:58:23;100032.38;;;2.07;78.22
63500;BME280;49654;51.142;14.924;2023-04-09T05:00:50;100131.66;;;2.70;78.17
63500;BME280;49654;51.142;14.924;2023-04-09T05:03:17;100143.47;;;2.86;78.18
63500;BME280;49654;51.142;14.924;2023-04-09T05:05:44;100145.53;;;2.93;78.34
63500;BME280;49654;51.142;14.924;2023-04-09T05:08:11;100068.03;;;2.50;77.94
63500;BME280;49654;51.142;14.924;2023-04-09T05:10:41;100072.44;;;2.61;77.89
63500;BME280;49654;51.142;14.924;2023-04-09T05:13:08;100142.75;;;2.96;81.29
63500;BME280;49654;51.142;14.924;2023-04-09T05:15:38;100015.31;;;2.46;81.37
63500;BME280;49654;51.142;14.924;2023-04-09T05:18:06;100145.91;;;3.38;81.67
63500;BME280;49654;51.142;14.924;2023-04-09T05:20:33;100131.84;;;3.44;81.40
63500;BME280;49654;51.142;14.924;2023-04-09T05:23:00;100124.00;;;3.58;81.07
63500;BME280;49654;51.142;14.924;2023-04-09T05:25:28;100088.22;;;3.31;80.84
63500;BME280;49654;51.142;14.924;2023-04-09T05:28:00;100081.31;;;3.44;81.60
63500;BME280;49654;51.142;14.924;2023-04-09T05:30:30;100134.22;;;3.84;81.34
63500;BME280;49654;51.142;14.924;2023-04-09T05:33:11;100125.97;;;3.91;81.36
63500;BME280;49654;51.142;14.924;2023-04-09T05:36:13;100158.91;;;4.34;80.43
63500;BME280;49654;51.142;14.924;2023-04-09T05:39:00;100049.88;;;3.78;80.23
63500;BME280;49654;51.142;14.924;2023-04-09T05:41:49;100090.63;;;4.30;79.79
63500;BME280;49654;51.142;14.924;2023-04-09T05:47:27;100155.63;;;5.14;78.38
63500;BME280;49654;51.142;14.924;2023-04-09T05:50:09;100019.59;;;4.40;77.64
63500;BME280;49654;51.142;14.924;2023-04-09T06:01:54;100057.63;;;4.59;76.41
63500;BME280;49654;51.142;14.924;2023-04-09T06:04:23;100058.69;;;4.79;75.23
63500;BME280;49654;51.142;14.924;2023-04-09T06:17:23;99994.78;;;4.17;74.95
63500;BME280;49654;51.142;14.924;2023-04-09T06:19:59;100046.03;;;4.53;75.23
63500;BME280;49654;51.142;14.924;2023-04-09T06:22:27;100145.44;;;5.12;76.01
63500;BME280;49654;51.142;14.924;2023-04-09T06:24:54;100127.19;;;5.04;75.30
63500;BME280;49654;51.142;14.924;2023-04-09T06:27:21;100169.81;;;5.42;75.73
63500;BME280;49654;51.142;14.924;2023-04-09T06:29:48;100020.19;;;4.44;75.29
63500;BME280;49654;51.142;14.924;2023-04-09T06:32:15;100114.31;;;5.04;75.77
63500;BME280;49654;51.142;14.924;2023-04-09T06:34:43;100184.69;;;5.49;76.01
63500;BME280;49654;51.142;14.924;2023-04-09T06:37:11;100131.19;;;5.42;75.73
63500;BME280;49654;51.142;14.924;2023-04-09T06:39:38;100173.75;;;5.91;74.93
63500;BME280;49654;51.142;14.924;2023-04-09T06:42:06;100125.19;;;5.64;74.41
63500;BME280;49654;51.142;14.924;2023-04-09T06:44:33;100149.66;;;5.81;74.74
63500;BME280;49654;51.142;14.924;2023-04-09T06:47:00;100171.34;;;6.33;74.31
63500;BME280;49654;51.142;14.924;2023-04-09T06:49:27;100079.69;;;5.96;72.79
63500;BME280;49654;51.142;14.924;2023-04-09T06:51:55;100148.41;;;6.30;72.73
63500;BME280;49654;51.142;14.924;2023-04-09T06:54:23;100172.06;;;6.35;73.28
63500;BME280;49654;51.142;14.924;2023-04-09T06:56:50;100060.25;;;5.81;73.59
63500;BME280;49654;51.142;14.924;2023-04-09T06:59:17;100176.88;;;7.02;73.18
63500;BME280;49654;51.142;14.924;2023-04-09T07:01:44;100057.44;;;6.79;71.36
63500;BME280;49654;51.142;14.924;2023-04-09T07:04:12;100154.09;;;7.78;67.04
63500;BME280;49654;51.142;14.924;2023-04-09T07:06:39;100169.06;;;7.74;66.29
63500;BME280;49654;51.142;14.924;2023-04-09T07:09:06;100138.09;;;7.84;67.34
63500;BME280;49654;51.142;14.924;2023-04-09T07:11:34;100151.94;;;7.83;66.89
63500;BME280;49654;51.142;14.924;2023-04-09T07:14:01;100086.22;;;7.76;66.46
63500;BME280;49654;51.142;14.924;2023-04-09T07:16:28;100182.56;;;8.67;64.83
63500;BME280;49654;51.142;14.924;2023-04-09T07:18:55;100071.66;;;8.04;63.38
63500;BME280;49654;51.142;14.924;2023-04-09T07:21:22;100194.28;;;9.00;62.82
63500;BME280;49654;51.142;14.924;2023-04-09T07:23:49;100147.63;;;9.00;61.74
63500;BME280;49654;51.142;14.924;2023-04-09T07:26:16;100200.41;;;9.46;58.81
63500;BME280;49654;51.142;14.924;2023-04-09T07:28:45;100184.69;;;9.57;58.63
63500;BME280;49654;51.142;14.924;2023-04-09T07:31:12;100167.66;;;9.45;59.08
63500;BME280;49654;51.142;14.924;2023-04-09T07:33:40;100177.44;;;9.23;58.72
63500;BME280;49654;51.142;14.924;2023-04-09T07:36:06;100204.41;;;9.40;59.83
63500;BME280;49654;51.142;14.924;2023-04-09T07:38:33;100191.34;;;9.22;59.89
63500;BME280;49654;51.142;14.924;2023-04-09T07:41:00;100203.34;;;9.23;60.52
63500;BME280;49654;51.142;14.924;2023-04-09T07:43:27;100189.50;;;8.95;61.01
63500;BME280;49654;51.142;14.924;2023-04-09T07:45:55;100209.25;;;9.06;59.85
63500;BME280;49654;51.142;14.924;2023-04-09T07:48:22;100076.81;;;7.25;63.90
63500;BME280;49654;51.142;14.924;2023-04-09T07:50:49;100205.16;;;8.36;63.42
63500;BME280;49654;51.142;14.924;2023-04-09T07:53:17;100207.88;;;8.34;62.77
63500;BME280;49654;51.142;14.924;2023-04-09T07:55:44;100206.84;;;8.75;62.88
63500;BME280;49654;51.142;14.924;2023-04-09T07:58:11;100099.97;;;8.25;62.74
63500;BME280;49654;51.142;14.924;2023-04-09T08:00:38;100197.25;;;9.05;60.62
63500;BME280;49654;51.142;14.924;2023-04-09T08:03:06;100161.56;;;8.80;60.38
63500;BME280;49654;51.142;14.924;2023-04-09T08:05:34;100195.47;;;9.06;61.07
63500;BME280;49654;51.142;14.924;2023-04-09T08:08:01;100186.16;;;9.22;60.30
63500;BME280;49654;51.142;14.924;2023-04-09T08:10:28;100117.41;;;8.91;59.45
63500;BME280;49654;51.142;14.924;2023-04-09T08:12:55;100061.13;;;9.11;59.78
63500;BME280;49654;51.142;14.924;2023-04-09T08:15:21;100192.94;;;10.25;58.25
63500;BME280;49654;51.142;14.924;2023-04-09T08:17:48;100198.50;;;10.48;56.77
63500;BME280;49654;51.142;14.924;2023-04-09T08:20:17;100198.28;;;10.77;57.32
63500;BME280;49654;51.142;14.924;2023-04-09T08:22:44;100197.59;;;11.19;57.01
63500;BME280;49654;51.142;14.924;2023-04-09T08:25:11;100201.09;;;10.84;55.15
63500;BME280;49654;51.142;14.924;2023-04-09T08:27:38;100206.69;;;10.53;58.47
63500;BME280;49654;51.142;14.924;2023-04-09T08:30:06;100194.84;;;11.21;56.61
63500;BME280;49654;51.142;14.924;2023-04-09T08:32:33;100163.44;;;11.40;55.01
63500;BME280;49654;51.142;14.924;2023-04-09T08:35:00;100203.44;;;10.95;55.25
63500;BME280;49654;51.142;14.924;2023-04-09T08:37:29;100183.72;;;10.85;54.95
63500;BME280;49654;51.142;14.924;2023-04-09T08:39:57;100196.97;;;10.99;55.92
63500;BME280;49654;51.142;14.924;2023-04-09T08:42:24;100191.94;;;11.24;53.73
63500;BME280;49654;51.142;14.924;2023-04-09T08:44:51;100170.31;;;11.49;53.77
63500;BME280;49654;51.142;14.924;2023-04-09T08:47:19;100197.00;;;11.94;52.46
63500;BME280;49654;51.142;14.924;2023-04-09T08:49:46;100173.31;;;11.71;52.49
63500;BME280;49654;51.142;14.924;2023-04-09T08:52:15;100145.94;;;12.01;51.42
63500;BME280;49654;51.142;14.924;2023-04-09T08:54:48;100155.88;;;11.63;51.43
63500;BME280;49654;51.142;14.924;2023-04-09T08:57:16;100185.94;;;11.84;53.34
63500;BME280;49654;51.142;14.924;2023-04-09T08:59:43;100186.06;;;11.82;52.94
63500;BME280;49654;51.142;14.924;2023-04-09T09:02:11;100192.25;;;12.40;52.02
63500;BME280;49654;51.142;14.924;2023-04-09T09:04:45;100190.97;;;12.76;51.43
63500;BME280;49654;51.142;14.924;2023-04-09T09:07:12;100167.47;;;13.01;50.45
63500;BME280;49654;51.142;14.924;2023-04-09T09:09:51;100148.47;;;12.51;50.21
63500;BME280;49654;51.142;14.924;2023-04-09T09:12:31;100191.91;;;12.92;50.10
63500;BME280;49654;51.142;14.924;2023-04-09T09:14:59;100199.25;;;12.39;50.23
63500;BME280;49654;51.142;14.924;2023-04-09T09:17:26;100196.31;;;12.75;51.12
63500;BME280;49654;51.142;14.924;2023-04-09T09:19:53;100100.44;;;12.38;50.71
63500;BME280;49654;51.142;14.924;2023-04-09T09:22:19;100197.22;;;13.47;49.30
63500;BME280;49654;51.142;14.924;2023-04-09T09:24:47;100192.06;;;13.23;47.29
63500;BME280;49654;51.142;14.924;2023-04-09T09:30:10;100141.28;;;13.50;46.86
63500;BME280;49654;51.142;14.924;2023-04-09T09:32:50;100158.16;;;14.01;43.82
63500;BME280;49654;51.142;14.924;2023-04-09T09:35:17;100189.53;;;14.24;44.84
63500;BME280;49654;51.142;14.924;2023-04-09T09:37:44;100070.22;;;14.77;42.53
63500;BME280;49654;51.142;14.924;2023-04-09T09:40:25;100165.22;;;16.03;41.99
63500;BME280;49654;51.142;14.924;2023-04-09T09:42:53;100192.53;;;15.20;42.22
63500;BME280;49654;51.142;14.924;2023-04-09T09:45:23;100190.31;;;14.79;42.43
63500;BME280;49654;51.142;14.924;2023-04-09T09:47:51;100139.03;;;15.08;40.70
63500;BME280;49654;51.142;14.924;2023-04-09T09:50:20;100092.84;;;15.00;42.33
63500;BME280;49654;51.142;14.924;2023-04-09T09:52:50;100191.13;;;14.94;41.53
63500;BME280;49654;51.142;14.924;2023-04-09T09:55:22;100183.34;;;15.39;42.89
63500;BME280;49654;51.142;14.924;2023-04-09T09:57:50;100186.56;;;15.11;44.73
63500;BME280;49654;51.142;14.924;2023-04-09T10:00:18;100184.91;;;14.35;44.40
63500;BME280;49654;51.142;14.924;2023-04-09T10:02:55;100177.94;;;14.27;43.88
63500;BME280;49654;51.142;14.924;2023-04-09T10:05:24;100169.09;;;14.05;43.68
63500;BME280;49654;51.142;14.924;2023-04-09T10:07:53;100178.66;;;13.82;46.45
63500;BME280;49654;51.142;14.924;2023-04-09T10:10:21;100182.22;;;13.58;44.98
63500;BME280;49654;51.142;14.924;2023-04-09T10:12:49;100174.34;;;12.94;46.19
63500;BME280;49654;51.142;14.924;2023-04-09T10:15:16;100159.84;;;12.75;50.08
63500;BME280;49654;51.142;14.924;2023-04-09T10:17:44;100168.63;;;12.74;50.31
63500;BME280;49654;51.142;14.924;2023-04-09T10:20:17;100137.19;;;12.84;48.48
63500;BME280;49654;51.142;14.924;2023-04-09T10:22:47;100158.72;;;13.89;46.12
63500;BME280;49654;51.142;14.924;2023-04-09T10:25:16;100087.72;;;12.59;45.96
63500;BME280;49654;51.142;14.924;2023-04-09T10:27:44;100146.00;;;13.55;45.90
63500;BME280;49654;51.142;14.924;2023-04-09T10:30:31;100164.69;;;14.51;46.12
63500;BME280;49654;51.142;14.924;2023-04-09T10:33:08;100163.66;;;14.61;43.14
63500;BME280;49654;51.142;14.924;2023-04-09T10:35:36;100161.31;;;14.43;43.73
63500;BME280;49654;51.142;14.924;2023-04-09T10:38:06;100169.72;;;14.30;45.64
63500;BME280;49654;51.142;14.924;2023-04-09T10:40:33;100137.69;;;14.13;43.86
63500;BME280;49654;51.142;14.924;2023-04-09T10:43:00;100153.00;;;15.00;44.14
63500;BME280;49654;51.142;14.924;2023-04-09T10:45:38;100135.50;;;15.15;42.68
63500;BME280;49654;51.142;14.924;2023-04-09T10:48:10;100060.63;;;15.29;41.57
63500;BME280;49654;51.142;14.924;2023-04-09T10:50:41;100149.59;;;15.14;44.36
63500;BME280;49654;51.142;14.924;2023-04-09T10:53:20;100089.72;;;15.41;43.52
63500;BME280;49654;51.142;14.924;2023-04-09T10:55:49;100155.91;;;16.00;42.97
63500;BME280;49654;51.142;14.924;2023-04-09T10:58:17;100130.25;;;15.74;42.54
63500;BME280;49654;51.142;14.924;2023-04-09T11:00:46;100137.22;;;16.25;41.72
63500;BME280;49654;51.142;14.924;2023-04-09T11:03:21;100065.88;;;15.65;40.84
63500;BME280;49654;51.142;14.924;2023-04-09T11:05:53;100148.19;;;16.35;41.03
63500;BME280;49654;51.142;14.924;2023-04-09T11:08:21;100148.28;;;16.48;41.96
63500;BME280;49654;51.142;14.924;2023-04-09T11:10:48;100153.69;;;16.90;41.58
63500;BME280;49654;51.142;14.924;2023-04-09T11:13:17;100052.34;;;16.82;38.79
63500;BME280;49654;51.142;14.924;2023-04-09T11:15:44;100157.47;;;16.81;39.85
63500;BME280;49654;51.142;14.924;2023-04-09T11:18:18;100152.69;;;15.98;40.93
63500;BME280;49654;51.142;14.924;2023-04-09T11:20:45;100147.97;;;17.08;40.21
63500;BME280;49654;51.142;14.924;2023-04-09T11:23:15;100144.72;;;17.82;38.83
63500;BME280;49654;51.142;14.924;2023-04-09T11:25:47;100149.88;;;17.68;39.71
63500;BME280;49654;51.142;14.924;2023-04-09T11:28:14;100130.31;;;16.95;39.64
63500;BME280;49654;51.142;14.924;2023-04-09T11:30:41;100101.38;;;16.53;40.12
63500;BME280;49654;51.142;14.924;2023-04-09T11:33:09;100123.28;;;17.30;40.23
63500;BME280;49654;51.142;14.924;2023-04-09T11:35:36;100089.16;;;18.11;38.15
63500;BME280;49654;51.142;14.924;2023-04-09T11:38:06;100132.28;;;18.90;36.46
63500;BME280;49654;51.142;14.924;2023-04-09T11:40:35;100126.75;;;17.44;37.43
63500;BME280;49654;51.142;14.924;2023-04-09T11:43:08;100122.84;;;16.92;38.39
63500;BME280;49654;51.142;14.924;2023-04-09T11:45:36;100127.09;;;17.27;39.97
63500;BME280;49654;51.142;14.924;2023-04-09T11:48:04;100115.25;;;17.45;40.06
63500;BME280;49654;51.142;14.924;2023-04-09T11:50:31;100120.09;;;17.96;36.70
63500;BME280;49654;51.142;14.924;2023-04-09T11:52:58;100113.25;;;18.08;36.23
63500;BME280;49654;51.142;14.924;2023-04-09T11:55:26;100069.34;;;17.34;37.83
63500;BME280;49654;51.142;14.924;2023-04-09T11:57:58;100096.22;;;17.36;39.05
63500;BME280;49654;51.142;14.924;2023-04-09T12:00:26;100119.63;;;17.86;38.53
63500;BME280;49654;51.142;14.924;2023-04-09T12:03:00;100112.84;;;18.71;37.50
63500;BME280;49654;51.142;14.924;2023-04-09T12:05:29;100109.13;;;19.12;36.84
63500;BME280;49654;51.142;14.924;2023-04-09T12:07:57;100094.63;;;18.56;35.89
63500;BME280;49654;51.142;14.924;2023-04-09T12:10:26;100113.84;;;18.90;35.34
63500;BME280;49654;51.142;14.924;2023-04-09T12:12:54;100114.88;;;18.49;36.43
63500;BME280;49654;51.142;14.924;2023-04-09T12:15:23;100106.78;;;18.57;34.68
63500;BME280;49654;51.142;14.924;2023-04-09T12:17:53;100107.34;;;19.57;35.19
63500;BME280;49654;51.142;14.924;2023-04-09T12:20:30;100083.97;;;19.74;34.62
63500;BME280;49654;51.142;14.924;2023-04-09T12:22:58;100117.72;;;18.74;34.49
63500;BME280;49654;51.142;14.924;2023-04-09T12:25:26;100124.38;;;18.17;34.01
63500;BME280;49654;51.142;14.924;2023-04-09T12:27:54;100046.06;;;18.79;34.10
63500;BME280;49654;51.142;14.924;2023-04-09T12:30:22;100100.72;;;20.68;32.36
63500;BME280;49654;51.142;14.924;2023-04-09T12:32:51;100112.94;;;19.22;33.99
63500;BME280;49654;51.142;14.924;2023-04-09T12:35:18;100104.94;;;19.62;32.61
63500;BME280;49654;51.142;14.924;2023-04-09T12:37:45;100101.03;;;20.03;32.54
63500;BME280;49654;51.142;14.924;2023-04-09T12:40:13;100091.00;;;20.43;33.37
63500;BME280;49654;51.142;14.924;2023-04-09T12:42:40;100102.69;;;21.94;29.78
63500;BME280;49654;51.142;14.924;2023-04-09T12:45:08;100092.00;;;22.90;28.57
63500;BME280;49654;51.142;14.924;2023-04-09T12:47:37;100081.59;;;23.52;28.86
63500;BME280;49654;51.142;14.924;2023-04-09T12:50:06;100072.09;;;22.64;28.15
63500;BME280;49654;51.142;14.924;2023-04-09T12:52:33;100079.50;;;25.28;26.20
63500;BME280;49654;51.142;14.924;2023-04-09T12:55:01;100073.81;;;26.37;25.11
63500;BME280;49654;51.142;14.924;2023-04-09T12:57:28;100072.25;;;27.62;23.43
63500;BME280;49654;51.142;14.924;2023-04-09T12:59:55;100065.69;;;27.07;23.01
63500;BME280;49654;51.142;14.924;2023-04-09T13:02:23;100055.50;;;23.32;26.45
63500;BME280;49654;51.142;14.924;2023-04-09T13:04:51;99964.25;;;19.63;31.08
63500;BME280;49654;51.142;14.924;2023-04-09T13:07:19;100067.53;;;19.79;33.14
63500;BME280;49654;51.142;14.924;2023-04-09T13:09:46;100078.47;;;19.31;34.25
63500;BME280;49654;51.142;14.924;2023-04-09T13:12:15;100033.00;;;17.31;37.27
63500;BME280;49654;51.142;14.924;2023-04-09T13:14:42;100074.00;;;18.46;34.85
63500;BME280;49654;51.142;14.924;2023-04-09T13:17:09;100071.56;;;18.58;36.86
63500;BME280;49654;51.142;14.924;2023-04-09T13:19:36;100064.13;;;19.26;34.86